sensor_id;sensor_type;location;lat;lon;timestamp;pressure;altitude;pressure_sealevel;temperature;humidity
71772;BME280;59606;52.138;5.424;2023-05-14T00:00:27;102149.91;;;14.51;73.35
71772;BME280;59606;52.138;5.424;2023-05-14T00:02:53;102144.84;;;14.47;73.51
71772;BME280;59606;52.138;5.424;2023-05-14T00:05:21;102141.41;;;14.46;73.65
71772;BME280;59606;52.138;5.424;2023-05-14T00:07:47;102145.00;;;14.44;73.48
71772;BME280;59606;52.138;5.424;2023-05-14T00:10:14;102137.25;;;14.42;73.58
71772;BME280;59606;52.138;5.424;2023-05-14T00:12:40;102133.03;;;14.38;73.47
71772;BME280;59606;52.138;5.424;2023-05-14T00:15:07;102130.56;;;14.35;73.92
71772;BME280;59606;52.138;5.424;2023-05-14T00:17:35;102132.44;;;14.33;74.54
71772;BME280;59606;52.138;5.424;2023-05-14T00:20:03;102130.91;;;14.29;74.39
71772;BME280;59606;52.138;5.424;2023-05-14T00:22:32;102123.41;;;14.21;75.36
71772;BME280;59606;52.138;5.424;2023-05-14T00:24:59;102131.25;;;14.21;75.35
71772;BME280;59606;52.138;5.424;2023-05-14T00:27:26;102120.94;;;14.18;75.65
71772;BME280;59606;52.138;5.424;2023-05-14T00:29:52;102113.16;;;14.17;75.55
71772;BME280;59606;52.138;5.424;2023-05-14T00:32:19;102121.31;;;14.10;75.33
71772;BME280;59606;52.138;5.424;2023-05-14T00:34:45;102120.63;;;14.07;75.47
71772;BME280;59606;52.138;5.424;2023-05-14T00:37:12;102111.22;;;14.03;75.84
71772;BME280;59606;52.138;5.424;2023-05-14T00:39:38;102107.91;;;13.99;76.16
71772;BME280;59606;52.138;5.424;2023-05-14T00:42:05;102106.13;;;14.00;75.72
71772;BME280;59606;52.138;5.424;2023-05-14T00:44:31;102113.28;;;13.96;76.31
71772;BME280;59606;52.138;5.424;2023-05-14T00:46:58;102108.03;;;13.96;76.80
71772;BME280;59606;52.138;5.424;2023-05-14T00:49:26;102103.75;;;13.95;76.21
71772;BME280;59606;52.138;5.424;2023-05-14T00:51:54;102101.19;;;13.94;76.67
71772;BME280;59606;52.138;5.424;2023-05-14T00:54:24;102096.19;;;13.89;76.58
71772;BME280;59606;52.138;5.424;2023-05-14T00:56:51;102087.53;;;13.87;76.55
71772;BME280;59606;52.138;5.424;2023-05-14T00:59:19;102085.84;;;13.86;76.41
71772;BME280;59606;52.138;5.424;2023-05-14T01:01:45;102094.78;;;13.82;76.41
71772;BME280;59606;52.138;5.424;2023-05-14T01:04:12;102092.50;;;13.74;76.89
71772;BME280;59606;52.138;5.424;2023-05-14T01:09:43;102095.34;;;13.70;77.53
71772;BME280;59606;52.138;5.424;2023-05-14T01:15:11;102095.59;;;13.65;77.52
71772;BME280;59606;52.138;5.424;2023-05-14T01:17:45;102092.47;;;13.57;77.44
71772;BME280;59606;52.138;5.424;2023-05-14T01:20:14;102087.38;;;13.54;78.06
71772;BME280;59606;52.138;5.424;2023-05-14T01:22:40;102092.69;;;13.52;78.38
71772;BME280;59606;52.138;5.424;2023-05-14T01:25:08;102086.63;;;13.52;78.29
71772;BME280;59606;52.138;5.424;2023-05-14T01:30:18;102087.88;;;13.43;77.98
71772;BME280;59606;52.138;5.424;2023-05-14T01:32:50;102093.34;;;13.38;78.55
71772;BME280;59606;52.138;5.424;2023-05-14T01:35:21;102093.34;;;13.38;79.01
71772;BME280;59606;52.138;5.424;2023-05-14T01:37:49;102090.06;;;13.33;79.13
71772;BME280;59606;52.138;5.424;2023-05-14T01:40:17;102093.69;;;13.31;78.75
71772;BME280;59606;52.138;5.424;2023-05-14T01:42:44;102087.69;;;13.29;79.46
71772;BME280;59606;52.138;5.424;2023-05-14T01:45:11;102078.44;;;13.20;78.89
71772;BME280;59606;52.138;5.424;2023-05-14T01:47:37;102087.28;;;13.17;79.46
71772;BME280;59606;52.138;5.424;2023-05-14T01:50:04;102073.44;;;13.15;79.59
71772;BME280;59606;52.138;5.424;2023-05-14T01:52:31;102082.19;;;13.14;79.62
71772;BME280;59606;52.138;5.424;2023-05-14T01:54:57;102084.03;;;13.12;79.35
71772;BME280;59606;52.138;5.424;2023-05-14T01:57:25;102085.16;;;13.07;79.59
71772;BME280;59606;52.138;5.424;2023-05-14T01:59:51;102075.75;;;13.03;79.87
71772;BME280;59606;52.138;5.424;2023-05-14T02:02:18;102067.91;;;13.03;80.12
71772;BME280;59606;52.138;5.424;2023-05-14T02:04:44;102070.78;;;12.96;80.22
71772;BME280;59606;52.138;5.424;2023-05-14T02:07:10;102067.41;;;12.94;80.93
71772;BME280;59606;52.138;5.424;2023-05-14T02:09:37;102061.31;;;12.94;80.15
71772;BME280;59606;52.138;5.424;2023-05-14T02:12:04;102058.78;;;12.92;80.81
71772;BME280;59606;52.138;5.424;2023-05-14T02:14:30;102055.38;;;12.90;80.41
71772;BME280;59606;52.138;5.424;2023-05-14T02:16:57;102056.50;;;12.85;80.12
71772;BME280;59606;52.138;5.424;2023-05-14T02:19:23;102050.56;;;12.81;80.43
71772;BME280;59606;52.138;5.424;2023-05-14T02:21:50;102060.25;;;12.79;80.41
71772;BME280;59606;52.138;5.424;2023-05-14T02:24:16;102060.31;;;12.78;80.73
71772;BME280;59606;52.138;5.424;2023-05-14T02:26:43;102071.69;;;12.77;81.13
71772;BME280;59606;52.138;5.424;2023-05-14T02:29:09;102067.38;;;12.76;80.75
71772;BME280;59606;52.138;5.424;2023-05-14T02:31:36;102064.81;;;12.74;81.14
71772;BME280;59606;52.138;5.424;2023-05-14T02:34:03;102064.19;;;12.69;81.46
71772;BME280;59606;52.138;5.424;2023-05-14T02:36:31;102053.78;;;12.67;81.56
71772;BME280;59606;52.138;5.424;2023-05-14T02:38:58;102060.91;;;12.64;82.02
71772;BME280;59606;52.138;5.424;2023-05-14T02:41:26;102056.69;;;12.61;81.73
71772;BME280;59606;52.138;5.424;2023-05-14T02:43:53;102048.97;;;12.58;82.09
71772;BME280;59606;52.138;5.424;2023-05-14T02:46:20;102051.63;;;12.57;81.89
71772;BME280;59606;52.138;5.424;2023-05-14T02:48:46;102049.94;;;12.56;82.25
71772;BME280;59606;52.138;5.424;2023-05-14T02:51:13;102046.63;;;12.52;82.20
71772;BME280;59606;52.138;5.424;2023-05-14T02:53:39;102042.31;;;12.51;82.33
71772;BME280;59606;52.138;5.424;2023-05-14T02:56:06;102045.91;;;12.48;82.16
71772;BME280;59606;52.138;5.424;2023-05-14T02:58:33;102042.50;;;12.46;82.31
71772;BME280;59606;52.138;5.424;2023-05-14T03:00:59;102046.09;;;12.44;82.49
71772;BME280;59606;52.138;5.424;2023-05-14T03:03:28;102048.78;;;12.42;82.74
71772;BME280;59606;52.138;5.424;2023-05-14T03:05:55;102046.28;;;12.39;82.79
71772;BME280;59606;52.138;5.424;2023-05-14T03:08:21;102045.59;;;12.36;82.76
71772;BME280;59606;52.138;5.424;2023-05-14T03:10:48;102041.47;;;12.30;83.03
71772;BME280;59606;52.138;5.424;2023-05-14T03:13:14;102043.22;;;12.30;83.11
71772;BME280;59606;52.138;5.424;2023-05-14T03:15:46;102039.97;;;12.24;83.46
71772;BME280;59606;52.138;5.424;2023-05-14T03:18:13;102042.75;;;12.20;83.92
71772;BME280;59606;52.138;5.424;2023-05-14T03:20:40;102041.91;;;12.19;84.26
71772;BME280;59606;52.138;5.424;2023-05-14T03:23:07;102048.91;;;12.19;84.06
71772;BME280;59606;52.138;5.424;2023-05-14T03:25:33;102045.47;;;12.18;84.17
71772;BME280;59606;52.138;5.424;2023-05-14T03:28:00;102043.81;;;12.16;84.16
71772;BME280;59606;52.138;5.424;2023-05-14T03:30:26;102045.63;;;12.14;84.33
71772;BME280;59606;52.138;5.424;2023-05-14T03:32:53;102047.41;;;12.13;84.16
71772;BME280;59606;52.138;5.424;2023-05-14T03:35:19;102054.13;;;12.19;84.86
71772;BME280;59606;52.138;5.424;2023-05-14T03:37:46;102042.84;;;12.18;84.85
71772;BME280;59606;52.138;5.424;2023-05-14T03:40:12;102039.50;;;12.15;84.61
71772;BME280;59606;52.138;5.424;2023-05-14T03:42:39;102041.31;;;12.13;84.81
71772;BME280;59606;52.138;5.424;2023-05-14T03:45:06;102039.81;;;12.07;85.06
71772;BME280;59606;52.138;5.424;2023-05-14T03:47:32;102042.38;;;12.09;85.25
71772;BME280;59606;52.138;5.424;2023-05-14T03:49:59;102047.72;;;12.06;85.18
71772;BME280;59606;52.138;5.424;2023-05-14T03:52:26;102040.72;;;12.06;85.27
71772;BME280;59606;52.138;5.424;2023-05-14T03:54:52;102030.53;;;12.00;85.56
71772;BME280;59606;52.138;5.424;2023-05-14T03:57:18;102029.69;;;11.99;85.66
71772;BME280;59606;52.138;5.424;2023-05-14T03:59:45;102034.16;;;11.97;85.56
71772;BME280;59606;52.138;5.424;2023-05-14T04:02:11;102032.44;;;11.96;86.66
71772;BME280;59606;52.138;5.424;2023-05-14T04:04:38;102023.69;;;11.97;86.33
71772;BME280;59606;52.138;5.424;2023-05-14T04:07:05;102023.75;;;11.96;86.16
71772;BME280;59606;52.138;5.424;2023-05-14T04:09:31;102021.97;;;11.96;86.44
71772;BME280;59606;52.138;5.424;2023-05-14T04:11:58;102028.03;;;11.97;86.70
71772;BME280;59606;52.138;5.424;2023-05-14T04:14:24;102021.97;;;11.96;86.60
71772;BME280;59606;52.138;5.424;2023-05-14T04:16:51;102021.13;;;11.96;86.49
71772;BME280;59606;52.138;5.424;2023-05-14T04:19:17;102017.59;;;11.97;86.25
71772;BME280;59606;52.138;5.424;2023-05-14T04:21:44;102021.13;;;11.96;86.37
71772;BME280;59606;52.138;5.424;2023-05-14T04:24:10;102030.03;;;11.92;86.74
71772;BME280;59606;52.138;5.424;2023-05-14T04:26:37;102024.78;;;11.92;86.41
71772;BME280;59606;52.138;5.424;2023-05-14T04:29:03;102023.03;;;11.92;86.96
71772;BME280;59606;52.138;5.424;2023-05-14T04:31:30;102025.59;;;11.94;86.77
71772;BME280;59606;52.138;5.424;2023-05-14T04:33:57;102024.00;;;11.90;86.75
71772;BME280;59606;52.138;5.424;2023-05-14T04:36:23;102022.09;;;11.93;87.13
71772;BME280;59606;52.138;5.424;2023-05-14T04:38:50;102023.75;;;11.96;86.97
71772;BME280;59606;52.138;5.424;2023-05-14T04:41:17;102030.66;;;11.97;87.15
71772;BME280;59606;52.138;5.424;2023-05-14T04:43:43;102023.69;;;11.97;87.34
71772;BME280;59606;52.138;5.424;2023-05-14T04:46:10;102024.47;;;11.99;86.96
71772;BME280;59606;52.138;5.424;2023-05-14T04:48:36;102022.69;;;12.00;86.84
71772;BME280;59606;52.138;5.424;2023-05-14T04:51:03;102024.47;;;11.99;87.04
71772;BME280;59606;52.138;5.424;2023-05-14T04:53:32;102031.34;;;12.02;87.18
71772;BME280;59606;52.138;5.424;2023-05-14T04:55:59;102022.53;;;12.05;87.42
71772;BME280;59606;52.138;5.424;2023-05-14T04:58:25;102023.97;;;12.12;87.65
71772;BME280;59606;52.138;5.424;2023-05-14T05:00:54;102034.03;;;12.21;87.48
71772;BME280;59606;52.138;5.424;2023-05-14T05:03:20;102029.56;;;12.23;87.07
71772;BME280;59606;52.138;5.424;2023-05-14T05:05:47;102038.94;;;12.29;87.62
71772;BME280;59606;52.138;5.424;2023-05-14T05:08:13;102027.50;;;12.31;87.34
71772;BME280;59606;52.138;5.424;2023-05-14T05:10:40;102027.41;;;12.33;87.28
71772;BME280;59606;52.138;5.424;2023-05-14T05:13:06;102028.94;;;12.38;86.89
71772;BME280;59606;52.138;5.424;2023-05-14T05:15:33;102031.47;;;12.40;87.01
71772;BME280;59606;52.138;5.424;2023-05-14T05:17:59;102029.44;;;12.46;87.09
71772;BME280;59606;52.138;5.424;2023-05-14T05:20:26;102038.78;;;12.52;87.21
71772;BME280;59606;52.138;5.424;2023-05-14T05:22:53;102032.56;;;12.55;86.92
71772;BME280;59606;52.138;5.424;2023-05-14T05:25:20;102031.38;;;12.62;87.26
71772;BME280;59606;52.138;5.424;2023-05-14T05:27:46;102033.72;;;12.68;86.69
71772;BME280;59606;52.138;5.424;2023-05-14T05:30:13;102036.22;;;12.71;86.24
71772;BME280;59606;52.138;5.424;2023-05-14T05:32:39;102037.94;;;12.70;86.02
71772;BME280;59606;52.138;5.424;2023-05-14T05:35:06;102038.47;;;12.79;86.25
71772;BME280;59606;52.138;5.424;2023-05-14T05:37:33;102042.50;;;12.86;86.12
71772;BME280;59606;52.138;5.424;2023-05-14T05:39:59;102029.28;;;12.89;85.99
71772;BME280;59606;52.138;5.424;2023-05-14T05:42:26;102031.13;;;12.87;85.82
71772;BME280;59606;52.138;5.424;2023-05-14T05:44:52;102035.50;;;12.86;85.93
71772;BME280;59606;52.138;5.424;2023-05-14T05:47:19;102032.19;;;12.83;86.02
71772;BME280;59606;52.138;5.424;2023-05-14T05:49:45;102038.47;;;12.79;86.34
71772;BME280;59606;52.138;5.424;2023-05-14T05:52:12;102043.97;;;12.72;86.49
71772;BME280;59606;52.138;5.424;2023-05-14T05:54:38;102049.28;;;12.71;86.56
71772;BME280;59606;52.138;5.424;2023-05-14T05:57:05;102040.56;;;12.70;86.67
71772;BME280;59606;52.138;5.424;2023-05-14T05:59:31;102037.09;;;12.70;86.67
71772;BME280;59606;52.138;5.424;2023-05-14T06:01:58;102043.31;;;12.67;86.89
71772;BME280;59606;52.138;5.424;2023-05-14T06:04:24;102043.25;;;12.69;86.91
71772;BME280;59606;52.138;5.424;2023-05-14T06:06:51;102051.59;;;12.77;86.77
71772;BME280;59606;52.138;5.424;2023-05-14T06:09:17;102050.63;;;12.80;87.26
71772;BME280;59606;52.138;5.424;2023-05-14T06:11:44;102040.97;;;12.82;87.50
71772;BME280;59606;52.138;5.424;2023-05-14T06:14:10;102042.16;;;12.93;86.93
71772;BME280;59606;52.138;5.424;2023-05-14T06:16:37;102057.00;;;12.93;87.28
71772;BME280;59606;52.138;5.424;2023-05-14T06:19:03;102055.81;;;13.00;87.48
71772;BME280;59606;52.138;5.424;2023-05-14T06:21:30;102036.50;;;13.03;86.97
71772;BME280;59606;52.138;5.424;2023-05-14T06:23:57;102038.75;;;13.10;87.19
71772;BME280;59606;52.138;5.424;2023-05-14T06:26:23;102052.22;;;13.21;86.80
71772;BME280;59606;52.138;5.424;2023-05-14T06:28:50;102057.97;;;13.30;86.67
71772;BME280;59606;52.138;5.424;2023-05-14T06:31:17;102064.75;;;13.34;86.50
71772;BME280;59606;52.138;5.424;2023-05-14T06:33:43;102045.28;;;13.39;86.38
71772;BME280;59606;52.138;5.424;2023-05-14T06:36:10;102055.25;;;13.50;86.49
71772;BME280;59606;52.138;5.424;2023-05-14T06:38:37;102050.13;;;13.66;88.02
71772;BME280;59606;52.138;5.424;2023-05-14T06:41:03;102052.94;;;13.80;86.05
71772;BME280;59606;52.138;5.424;2023-05-14T06:43:30;102044.22;;;13.80;85.09
71772;BME280;59606;52.138;5.424;2023-05-14T06:45:56;102053.84;;;13.79;84.82
71772;BME280;59606;52.138;5.424;2023-05-14T06:48:23;102059.16;;;13.78;84.92
71772;BME280;59606;52.138;5.424;2023-05-14T06:50:49;102042.75;;;13.91;85.76
71772;BME280;59606;52.138;5.424;2023-05-14T06:53:16;102041.41;;;14.02;84.78
71772;BME280;59606;52.138;5.424;2023-05-14T06:55:43;102040.06;;;14.10;84.32
71772;BME280;59606;52.138;5.424;2023-05-14T06:58:10;102031.50;;;14.24;83.81
71772;BME280;59606;52.138;5.424;2023-05-14T07:00:36;102038.53;;;14.24;82.90
71772;BME280;59606;52.138;5.424;2023-05-14T07:03:03;102034.59;;;14.32;83.23
71772;BME280;59606;52.138;5.424;2023-05-14T07:05:29;102026.94;;;14.45;83.75
71772;BME280;59606;52.138;5.424;2023-05-14T07:07:56;102039.28;;;14.60;82.43
71772;BME280;59606;52.138;5.424;2023-05-14T07:10:22;102035.03;;;14.58;82.24
71772;BME280;59606;52.138;5.424;2023-05-14T07:12:49;102030.00;;;14.71;83.11
71772;BME280;59606;52.138;5.424;2023-05-14T07:15:16;102043.31;;;14.83;81.46
71772;BME280;59606;52.138;5.424;2023-05-14T07:17:42;102039.00;;;14.82;81.42
71772;BME280;59606;52.138;5.424;2023-05-14T07:20:09;102041.28;;;14.89;81.61
71772;BME280;59606;52.138;5.424;2023-05-14T07:22:36;102033.25;;;14.92;80.31
71772;BME280;59606;52.138;5.424;2023-05-14T07:25:03;102036.91;;;14.89;80.70
71772;BME280;59606;52.138;5.424;2023-05-14T07:27:30;102033.00;;;14.96;79.83
71772;BME280;59606;52.138;5.424;2023-05-14T07:29:56;102032.41;;;14.91;79.99
71772;BME280;59606;52.138;5.424;2023-05-14T07:32:23;102036.47;;;14.97;80.48
71772;BME280;59606;52.138;5.424;2023-05-14T07:34:50;102041.06;;;15.09;81.17
71772;BME280;59606;52.138;5.424;2023-05-14T07:37:17;102034.38;;;15.19;80.34
71772;BME280;59606;52.138;5.424;2023-05-14T07:39:44;102033.94;;;15.27;80.88
71772;BME280;59606;52.138;5.424;2023-05-14T07:42:10;102032.84;;;15.31;80.58
71772;BME280;59606;52.138;5.424;2023-05-14T07:44:50;102026.59;;;15.33;82.27
71772;BME280;59606;52.138;5.424;2023-05-14T07:47:17;102032.66;;;15.50;80.47
71772;BME280;59606;52.138;5.424;2023-05-14T07:49:43;102027.91;;;15.56;81.47
71772;BME280;59606;52.138;5.424;2023-05-14T07:52:10;102023.03;;;15.66;79.98
71772;BME280;59606;52.138;5.424;2023-05-14T07:54:36;102024.59;;;15.69;80.54
71772;BME280;59606;52.138;5.424;2023-05-14T07:57:03;102016.47;;;15.73;79.52
71772;BME280;59606;52.138;5.424;2023-05-14T07:59:30;102019.59;;;15.80;80.38
71772;BME280;59606;52.138;5.424;2023-05-14T08:01:57;102023.19;;;15.93;80.64
71772;BME280;59606;52.138;5.424;2023-05-14T08:04:23;102018.69;;;15.95;79.40
71772;BME280;59606;52.138;5.424;2023-05-14T08:06:50;102028.63;;;15.90;80.09
71772;BME280;59606;52.138;5.424;2023-05-14T08:09:17;102019.81;;;15.91;79.71
71772;BME280;59606;52.138;5.424;2023-05-14T08:11:43;102024.88;;;15.94;80.93
71772;BME280;59606;52.138;5.424;2023-05-14T08:14:10;102015.88;;;15.98;80.24
71772;BME280;59606;52.138;5.424;2023-05-14T08:16:36;102014.03;;;16.00;80.69
71772;BME280;59606;52.138;5.424;2023-05-14T08:19:04;102013.72;;;16.05;80.93
71772;BME280;59606;52.138;5.424;2023-05-14T08:21:30;102017.13;;;16.07;80.01
71772;BME280;59606;52.138;5.424;2023-05-14T08:23:58;102020.25;;;16.14;81.08
71772;BME280;59606;52.138;5.424;2023-05-14T08:26:24;102020.91;;;16.32;80.71
71772;BME280;59606;52.138;5.424;2023-05-14T08:28:52;102013.59;;;16.37;79.38
71772;BME280;59606;52.138;5.424;2023-05-14T08:31:19;102019.25;;;16.45;80.21
71772;BME280;59606;52.138;5.424;2023-05-14T08:33:45;102014.94;;;16.58;79.38
71772;BME280;59606;52.138;5.424;2023-05-14T08:36:12;102004.50;;;16.71;78.72
71772;BME280;59606;52.138;5.424;2023-05-14T08:38:39;102010.44;;;16.75;78.61
71772;BME280;59606;52.138;5.424;2023-05-14T08:41:06;102005.22;;;16.73;77.02
71772;BME280;59606;52.138;5.424;2023-05-14T08:46:28;102003.75;;;16.98;76.61
71772;BME280;59606;52.138;5.424;2023-05-14T08:48:59;101989.03;;;17.08;77.38
71772;BME280;59606;52.138;5.424;2023-05-14T08:51:30;101988.94;;;17.09;75.88
71772;BME280;59606;52.138;5.424;2023-05-14T08:53:58;101989.59;;;17.13;75.65
71772;BME280;59606;52.138;5.424;2023-05-14T08:56:31;101993.22;;;17.25;75.36
71772;BME280;59606;52.138;5.424;2023-05-14T08:58:58;101994.91;;;17.26;75.08
71772;BME280;59606;52.138;5.424;2023-05-14T09:01:25;101997.22;;;17.30;76.41
71772;BME280;59606;52.138;5.424;2023-05-14T09:03:53;101992.53;;;17.35;74.50
71772;BME280;59606;52.138;5.424;2023-05-14T09:06:20;101985.06;;;17.42;74.22
71772;BME280;59606;52.138;5.424;2023-05-14T09:08:48;101986.13;;;17.39;73.84
71772;BME280;59606;52.138;5.424;2023-05-14T09:11:14;101989.91;;;17.35;73.70
71772;BME280;59606;52.138;5.424;2023-05-14T09:13:41;101986.69;;;17.30;74.84
71772;BME280;59606;52.138;5.424;2023-05-14T09:16:08;101984.94;;;17.31;74.37
71772;BME280;59606;52.138;5.424;2023-05-14T09:18:35;101981.66;;;17.27;74.54
71772;BME280;59606;52.138;5.424;2023-05-14T09:21:02;101977.03;;;17.31;73.77
71772;BME280;59606;52.138;5.424;2023-05-14T09:23:31;101971.91;;;17.42;74.27
71772;BME280;59606;52.138;5.424;2023-05-14T09:26:03;101973.75;;;17.54;73.47
71772;BME280;59606;52.138;5.424;2023-05-14T09:28:29;101969.31;;;17.55;74.71
71772;BME280;59606;52.138;5.424;2023-05-14T09:30:56;101975.94;;;17.60;72.78
71772;BME280;59606;52.138;5.424;2023-05-14T09:33:26;101968.91;;;17.61;74.12
71772;BME280;59606;52.138;5.424;2023-05-14T09:36:00;101964.16;;;17.66;74.13
71772;BME280;59606;52.138;5.424;2023-05-14T09:38:31;101968.06;;;17.73;75.74
71772;BME280;59606;52.138;5.424;2023-05-14T09:40:58;101963.41;;;17.91;74.49
71772;BME280;59606;52.138;5.424;2023-05-14T09:43:26;101956.63;;;18.00;73.80
71772;BME280;59606;52.138;5.424;2023-05-14T09:45:52;101953.81;;;18.16;73.67
71772;BME280;59606;52.138;5.424;2023-05-14T09:48:18;101954.97;;;18.24;71.82
71772;BME280;59606;52.138;5.424;2023-05-14T09:50:45;101958.88;;;18.19;71.52
71772;BME280;59606;52.138;5.424;2023-05-14T09:53:12;101959.38;;;18.24;72.12
71772;BME280;59606;52.138;5.424;2023-05-14T09:55:39;101953.81;;;18.28;73.36
71772;BME280;59606;52.138;5.424;2023-05-14T09:58:07;101950.41;;;18.39;71.64
71772;BME280;59606;52.138;5.424;2023-05-14T10:00:34;101949.13;;;18.45;74.86
71772;BME280;59606;52.138;5.424;2023-05-14T10:03:06;101950.69;;;18.60;73.20
71772;BME280;59606;52.138;5.424;2023-05-14T10:05:39;101944.63;;;18.71;71.32
71772;BME280;59606;52.138;5.424;2023-05-14T10:08:13;101940.97;;;18.73;70.39
71772;BME280;59606;52.138;5.424;2023-05-14T10:10:42;101945.50;;;18.71;71.17
71772;BME280;59606;52.138;5.424;2023-05-14T10:13:19;101950.78;;;18.71;70.91
71772;BME280;59606;52.138;5.424;2023-05-14T10:15:48;101944.56;;;18.72;69.74
71772;BME280;59606;52.138;5.424;2023-05-14T10:18:18;101945.59;;;18.82;70.01
71772;BME280;59606;52.138;5.424;2023-05-14T10:20:50;101938.56;;;18.94;69.31
71772;BME280;59606;52.138;5.424;2023-05-14T10:23:19;101941.94;;;18.96;68.57
71772;BME280;59606;52.138;5.424;2023-05-14T10:25:45;101942.28;;;18.92;69.81
71772;BME280;59606;52.138;5.424;2023-05-14T10:28:12;101940.31;;;19.06;68.85
71772;BME280;59606;52.138;5.424;2023-05-14T10:30:48;101928.47;;;19.12;67.33
71772;BME280;59606;52.138;5.424;2023-05-14T10:33:15;101926.94;;;19.21;66.77
71772;BME280;59606;52.138;5.424;2023-05-14T10:38:31;101929.28;;;19.37;66.46
71772;BME280;59606;52.138;5.424;2023-05-14T10:41:00;101935.59;;;19.23;66.22
71772;BME280;59606;52.138;5.424;2023-05-14T10:43:28;101929.03;;;19.28;66.88
71772;BME280;59606;52.138;5.424;2023-05-14T10:45:57;101922.56;;;19.33;66.11
71772;BME280;59606;52.138;5.424;2023-05-14T10:48:25;101918.13;;;19.44;65.99
71772;BME280;59606;52.138;5.424;2023-05-14T10:50:53;101916.72;;;19.51;66.60
71772;BME280;59606;52.138;5.424;2023-05-14T10:53:30;101917.63;;;19.63;66.15
71772;BME280;59606;52.138;5.424;2023-05-14T10:55:57;101907.78;;;19.65;65.93
71772;BME280;59606;52.138;5.424;2023-05-14T10:58:29;101908.88;;;19.74;65.32
71772;BME280;59606;52.138;5.424;2023-05-14T11:00:58;101913.78;;;19.67;65.01
71772;BME280;59606;52.138;5.424;2023-05-14T11:03:28;101903.22;;;19.67;63.37
71772;BME280;59606;52.138;5.424;2023-05-14T11:05:58;101897.91;;;19.67;65.77
71772;BME280;59606;52.138;5.424;2023-05-14T11:08:29;101898.44;;;19.84;64.51
71772;BME280;59606;52.138;5.424;2023-05-14T11:10:56;101900.59;;;19.90;63.99
71772;BME280;59606;52.138;5.424;2023-05-14T11:13:25;101898.34;;;19.96;64.02
71772;BME280;59606;52.138;5.424;2023-05-14T11:15:52;101899.28;;;20.07;62.71
71772;BME280;59606;52.138;5.424;2023-05-14T11:18:30;101892.09;;;20.09;63.49
71772;BME280;59606;52.138;5.424;2023-05-14T11:20:59;101892.09;;;20.20;62.43
71772;BME280;59606;52.138;5.424;2023-05-14T11:23:26;101884.84;;;20.22;62.82
71772;BME280;59606;52.138;5.424;2023-05-14T11:25:55;101886.06;;;20.29;60.88
71772;BME280;59606;52.138;5.424;2023-05-14T11:28:23;101880.78;;;20.29;62.04
71772;BME280;59606;52.138;5.424;2023-05-14T11:30:50;101888.56;;;20.42;61.05
71772;BME280;59606;52.138;5.424;2023-05-14T11:33:18;101876.78;;;20.46;60.39
71772;BME280;59606;52.138;5.424;2023-05-14T11:35:45;101875.94;;;20.57;61.04
71772;BME280;59606;52.138;5.424;2023-05-14T11:38:18;101871.25;;;20.60;61.46
71772;BME280;59606;52.138;5.424;2023-05-14T11:40:52;101866.78;;;20.61;61.43
71772;BME280;59606;52.138;5.424;2023-05-14T11:43:19;101865.06;;;20.71;62.84
71772;BME280;59606;52.138;5.424;2023-05-14T11:45:50;101865.31;;;20.68;61.61
71772;BME280;59606;52.138;5.424;2023-05-14T11:48:20;101862.06;;;20.64;61.66
71772;BME280;59606;52.138;5.424;2023-05-14T11:50:48;101862.31;;;20.61;61.63
71772;BME280;59606;52.138;5.424;2023-05-14T11:53:24;101862.56;;;20.58;60.29
71772;BME280;59606;52.138;5.424;2023-05-14T11:55:52;101863.06;;;20.52;61.33
71772;BME280;59606;52.138;5.424;2023-05-14T11:58:20;101861.25;;;20.64;60.20
71772;BME280;59606;52.138;5.424;2023-05-14T12:00:51;101863.63;;;20.67;59.67
71772;BME280;59606;52.138;5.424;2023-05-14T12:03:18;101856.38;;;20.69;61.42
71772;BME280;59606;52.138;5.424;2023-05-14T12:05:58;101860.84;;;20.80;60.53
71772;BME280;59606;52.138;5.424;2023-05-14T12:08:28;101852.41;;;20.86;59.65
71772;BME280;59606;52.138;5.424;2023-05-14T12:10:56;101855.50;;;20.91;61.32
71772;BME280;59606;52.138;5.424;2023-05-14T12:13:30;101849.03;;;21.05;60.70
71772;BME280;59606;52.138;5.424;2023-05-14T12:15:58;101837.75;;;21.03;59.76
71772;BME280;59606;52.138;5.424;2023-05-14T12:18:28;101840.84;;;21.08;60.39
71772;BME280;59606;52.138;5.424;2023-05-14T12:20:58;101839.94;;;21.18;59.51
71772;BME280;59606;52.138;5.424;2023-05-14T12:23:31;101838.78;;;21.32;58.30
71772;BME280;59606;52.138;5.424;2023-05-14T12:26:05;101834.00;;;21.26;57.38
71772;BME280;59606;52.138;5.424;2023-05-14T12:28:34;101830.13;;;21.30;58.93
71772;BME280;59606;52.138;5.424;2023-05-14T12:31:03;101835.25;;;21.43;59.75
71772;BME280;59606;52.138;5.424;2023-05-14T12:33:31;101827.38;;;21.62;59.45
71772;BME280;59606;52.138;5.424;2023-05-14T12:35:57;101825.88;;;21.60;57.87
71772;BME280;59606;52.138;5.424;2023-05-14T12:38:39;101825.00;;;21.59;57.86
71772;BME280;59606;52.138;5.424;2023-05-14T12:41:06;101824.31;;;21.57;59.82
71772;BME280;59606;52.138;5.424;2023-05-14T12:43:33;101818.66;;;21.72;58.43
71772;BME280;59606;52.138;5.424;2023-05-14T12:45:59;101816.25;;;21.69;57.99
71772;BME280;59606;52.138;5.424;2023-05-14T12:48:25;101819.75;;;21.69;57.05
71772;BME280;59606;52.138;5.424;2023-05-14T12:50:52;101815.31;;;21.70;56.38
71772;BME280;59606;52.138;5.424;2023-05-14T12:53:18;101817.50;;;21.64;56.46
71772;BME280;59606;52.138;5.424;2023-05-14T12:55:45;101812.50;;;21.71;57.28
71772;BME280;59606;52.138;5.424;2023-05-14T12:58:11;101799.97;;;21.73;58.27
71772;BME280;59606;52.138;5.424;2023-05-14T13:00:38;101797.44;;;21.72;57.53
71772;BME280;59606;52.138;5.424;2023-05-14T13:03:05;101805.91;;;21.65;57.88
71772;BME280;59606;52.138;5.424;2023-05-14T13:05:31;101804.41;;;21.73;57.66